Time;durP1;ratioP1;P1;durP2;ratioP2;P2;SDS_P1;SDS_P2;PMS_P1;PMS_P2;Temp;Humidity;BMP_temperature;BMP_pressure;BME280_temperature;BME280_humidity;BME280_pressure;Samples;Min_cycle;Max_cycle;Signal;HPM_P1;HPM_P2
2023/01/06 00:02:52;;;;;;;5.60;4.43;;;;;;;9.28;87.30;100809.41;10521456;28;20227;-84
2023/01/06 00:07:54;;;;;;;7.43;4.40;;;;;;;9.35;86.31;100813.84;10506332;28;20222;-84
2023/01/06 00:12:57;;;;;;;7.00;3.70;;;;;;;9.46;84.35;100809.84;10500515;28;20663;-85
2023/01/06 00:17:59;;;;;;;9.03;3.87;;;;;;;9.27;85.65;100801.34;10479711;28;20202;-85
2023/01/06 00:23:02;;;;;;;5.30;2.60;;;;;;;9.43;84.27;100788.84;10505996;28;20219;-85
2023/01/06 00:28:04;;;;;;;3.70;2.17;;;;;;;9.14;84.05;100794.47;10511794;28;20241;-83
2023/01/06 00:33:06;;;;;;;4.63;2.10;;;;;;;8.97;84.12;100802.44;10516358;28;20260;-84
2023/01/06 00:38:09;;;;;;;3.40;1.43;;;;;;;9.31;83.38;100789.22;10517381;28;20230;-85
2023/01/06 00:43:12;;;;;;;3.17;1.60;;;;;;;8.99;83.58;100777.81;10486141;28;21082;-86
2023/01/06 00:48:14;;;;;;;5.83;1.67;;;;;;;9.06;83.77;100783.06;10489637;28;20243;-84
2023/01/06 00:53:17;;;;;;;3.80;1.90;;;;;;;9.06;84.67;100772.69;10500144;28;20211;-85
2023/01/06 00:58:20;;;;;;;4.30;2.07;;;;;;;8.85;84.83;100774.88;10500137;28;20191;-85
2023/01/06 01:03:22;;;;;;;2.47;1.57;;;;;;;8.98;84.80;100764.97;10515611;28;20218;-85
2023/01/06 01:08:24;;;;;;;3.83;1.83;;;;;;;9.18;84.42;100763.91;10490492;28;20272;-85
2023/01/06 01:13:26;;;;;;;3.53;1.60;;;;;;;8.95;84.55;100765.53;10515624;28;20259;-85
2023/01/06 01:18:28;;;;;;;3.23;1.10;;;;;;;8.94;84.73;100766.66;10495218;28;20230;-85
2023/01/06 01:23:31;;;;;;;6.07;1.50;;;;;;;8.95;84.32;100765.53;10515831;28;20259;-84
2023/01/06 01:28:34;;;;;;;4.30;1.00;;;;;;;9.43;82.10;100765.63;10516034;28;20270;-84
2023/01/06 01:33:37;;;;;;;6.67;1.30;;;;;;;9.38;82.06;100772.09;10514604;28;20215;-85
2023/01/06 01:38:39;;;;;;;1.40;0.70;;;;;;;8.91;82.70;100776.47;10516837;28;20518;-83
2023/01/06 01:43:50;;;;;;;2.17;0.80;;;;;;;9.31;81.30;100757.59;10508108;28;20203;-84
2023/01/06 01:48:55;;;;;;;2.40;0.83;;;;;;;8.96;81.60;100764.41;10502575;28;20206;-84
2023/01/06 01:53:59;;;;;;;2.47;0.50;;;;;;;9.11;80.66;100764.25;10514728;28;20255;-84
2023/01/06 01:59:11;;;;;;;3.20;0.77;;;;;;;9.05;80.14;100754.25;10495687;28;20491;-84
2023/01/06 02:04:15;;;;;;;4.70;0.50;;;;;;;9.02;79.97;100756.81;10497888;28;20199;-83
2023/01/06 02:09:36;;;;;;;3.17;0.73;;;;;;;9.13;79.93;100750.81;10504836;28;20211;-85
2023/01/06 02:14:39;;;;;;;2.67;0.50;;;;;;;9.18;78.69;100747.09;10497228;28;20206;-84
2023/01/06 02:19:56;;;;;;;1.43;0.50;;;;;;;9.21;77.00;100738.97;10537531;28;20218;-84
2023/01/06 02:25:17;;;;;;;1.40;0.40;;;;;;;9.01;78.12;100735.56;10538860;28;20214;-83
2023/01/06 02:30:51;;;;;;;1.70;0.30;;;;;;;9.08;78.09;100731.28;10539556;28;20275;-84
2023/01/06 02:36:17;;;;;;;2.97;0.73;;;;;;;9.21;76.68;100730.56;10521351;28;20226;-84
2023/01/06 02:42:11;;;;;;;1.10;0.30;;;;;;;9.41;75.71;100731.50;10505212;28;20310;-85
2023/01/06 02:47:18;;;;;;;1.97;0.50;;;;;;;9.12;76.95;100721.16;10530042;28;20198;-84
2023/01/06 02:52:41;;;;;;;2.37;0.67;;;;;;;9.24;76.68;100721.59;10506018;28;20271;-84
2023/01/06 02:57:58;;;;;;;3.20;0.40;;;;;;;9.07;76.76;100707.22;10490013;28;20663;-87
2023/01/06 03:03:12;;;;;;;4.60;0.67;;;;;;;9.27;75.25;100711.75;10505916;28;20461;-85
2023/01/06 03:08:19;;;;;;;1.20;0.50;;;;;;;9.23;75.42;100722.72;10529561;28;20218;-86
2023/01/06 03:13:40;;;;;;;7.27;0.70;;;;;;;9.11;76.58;100705.50;10545433;28;20236;-84
2023/01/06 03:18:46;;;;;;;1.40;0.60;;;;;;;9.16;76.02;100697.03;10513500;28;20191;-84
2023/01/06 03:23:48;;;;;;;4.17;0.60;;;;;;;9.46;74.65;100686.63;10511812;28;20194;-83
2023/01/06 03:28:51;;;;;;;2.47;0.60;;;;;;;9.21;74.56;100685.78;10525852;28;20622;-84
2023/01/06 03:34:05;;;;;;;1.97;0.43;;;;;;;9.13;75.33;100689.25;10527606;28;20241;-84
2023/01/06 03:39:25;;;;;;;1.50;0.43;;;;;;;9.04;75.59;100691.00;10536827;28;20644;-85
2023/01/06 03:44:33;;;;;;;2.07;0.60;;;;;;;9.23;74.00;100677.09;10535093;28;20221;-85
2023/01/06 03:50:09;;;;;;;0.90;0.40;;;;;;;9.12;74.08;100676.38;10527975;28;20226;-84
2023/01/06 03:55:16;;;;;;;6.20;0.70;;;;;;;9.18;73.25;100679.94;10517517;28;20194;-84
2023/01/06 04:00:22;;;;;;;2.77;0.70;;;;;;;9.49;72.37;100675.69;10521367;28;20232;-83
2023/01/06 04:05:32;;;;;;;2.47;0.63;;;;;;;8.97;72.49;100668.16;10509740;28;20190;-84
2023/01/06 04:10:36;;;;;;;3.53;0.83;;;;;;;9.26;71.63;100671.75;10485678;28;20233;-85
2023/01/06 04:15:39;;;;;;;1.67;0.30;;;;;;;9.13;72.43;100666.84;10523761;28;20487;-85
2023/01/06 04:20:43;;;;;;;4.90;0.50;;;;;;;8.89;71.32;100652.03;10492331;28;20236;-83
2023/01/06 04:25:53;;;;;;;2.50;0.30;;;;;;;8.87;70.71;100654.28;10520717;28;20251;-83
2023/01/06 04:31:08;;;;;;;1.00;0.50;;;;;;;8.94;70.81;100646.34;10508427;28;20267;-85
2023/01/06 04:36:11;;;;;;;1.63;0.33;;;;;;;8.71;72.91;100641.59;10498046;28;20271;-85
2023/01/06 04:41:17;;;;;;;2.30;0.60;;;;;;;8.90;72.67;100631.28;10499463;28;20191;-84
2023/01/06 04:46:19;;;;;;;1.30;0.53;;;;;;;8.90;72.52;100612.53;10514417;28;20491;-85
2023/01/06 04:51:22;;;;;;;3.80;0.50;;;;;;;8.82;73.53;100618.81;10512601;28;20240;-84
2023/01/06 04:56:24;;;;;;;1.63;0.30;;;;;;;8.96;73.11;100616.13;10472888;28;20190;-85
2023/01/06 05:01:28;;;;;;;4.27;0.43;;;;;;;8.99;73.31;100593.16;10535174;28;20311;-85
2023/01/06 05:06:30;;;;;;;2.30;0.40;;;;;;;8.89;73.71;100585.69;10530392;28;20638;-84
2023/01/06 05:11:32;;;;;;;1.90;0.80;;;;;;;8.80;73.66;100583.84;10518751;28;20269;-85
2023/01/06 05:16:36;;;;;;;3.47;0.57;;;;;;;9.10;72.61;100591.88;10512848;28;20199;-84
2023/01/06 05:21:40;;;;;;;3.00;0.40;;;;;;;8.77;74.88;100595.63;10516639;28;20628;-84
2023/01/06 05:26:42;;;;;;;2.80;0.40;;;;;;;8.69;75.22;100583.16;10534692;28;20251;-84
2023/01/06 05:31:44;;;;;;;3.43;0.60;;;;;;;8.76;75.22;100583.63;10518886;28;20246;-84
2023/01/06 05:36:47;;;;;;;1.37;0.40;;;;;;;8.71;74.51;100588.44;10504884;28;20230;-84
2023/01/06 05:41:50;;;;;;;1.67;0.37;;;;;;;9.01;74.26;100595.66;10525104;28;20226;-84
2023/01/06 05:46:52;;;;;;;3.27;0.60;;;;;;;9.21;72.41;100585.03;10514288;28;20594;-84
2023/01/06 05:51:54;;;;;;;3.73;0.50;;;;;;;9.13;73.42;100587.66;10488933;28;20512;-84
2023/01/06 05:56:57;;;;;;;2.40;0.40;;;;;;;9.34;72.77;100599.41;10541885;28;20190;-83
2023/01/06 06:01:59;;;;;;;4.03;0.43;;;;;;;9.30;72.20;100591.59;10539869;28;20198;-85
2023/01/06 06:07:01;;;;;;;0.87;0.40;;;;;;;9.15;72.41;100589.00;10535393;28;20202;-84
2023/01/06 06:12:03;;;;;;;3.20;0.30;;;;;;;9.28;72.76;100596.66;10538713;28;20280;-85
2023/01/06 06:17:06;;;;;;;1.90;0.30;;;;;;;9.23;73.24;100582.75;10540550;28;20210;-84
2023/01/06 06:22:08;;;;;;;0.93;0.27;;;;;;;9.45;71.94;100592.56;10539267;28;20260;-83
2023/01/06 06:27:11;;;;;;;2.60;0.77;;;;;;;9.54;71.47;100588.78;10539470;28;20186;-86
2023/01/06 06:32:13;;;;;;;5.17;0.83;;;;;;;9.10;72.23;100585.47;10541472;28;20211;-85
2023/01/06 06:37:17;;;;;;;3.00;0.50;;;;;;;9.01;72.97;100588.09;10537818;28;20530;-85
2023/01/06 06:42:19;;;;;;;0.63;0.30;;;;;;;8.86;73.57;100593.88;10518167;28;20240;-86
2023/01/06 06:47:21;;;;;;;0.43;0.23;;;;;;;9.28;71.80;100571.47;10514620;28;20587;-84
2023/01/06 06:52:23;;;;;;;3.43;0.30;;;;;;;9.52;71.24;100573.44;10508173;28;20237;-85
2023/01/06 06:57:26;;;;;;;0.33;0.20;;;;;;;8.97;73.64;100573.03;10529317;28;20260;-85
2023/01/06 07:02:29;;;;;;;7.13;0.40;;;;;;;9.02;73.59;100586.94;10505846;28;20230;-85
2023/01/06 07:07:31;;;;;;;0.60;0.20;;;;;;;8.86;74.39;100574.28;10525682;28;20214;-85
2023/01/06 07:12:33;;;;;;;2.20;0.40;;;;;;;8.91;74.21;100574.22;10508473;28;20246;-84
2023/01/06 07:17:35;;;;;;;1.80;0.40;;;;;;;8.85;74.44;100569.81;10513677;28;20287;-84
2023/01/06 07:22:38;;;;;;;1.13;0.20;;;;;;;8.86;74.74;100563.09;10517758;28;20553;-85
2023/01/06 07:27:40;;;;;;;2.10;0.20;;;;;;;8.80;75.41;100548.34;10513772;28;20539;-84
2023/01/06 07:32:43;;;;;;;2.73;0.30;;;;;;;8.49;76.62;100556.25;10534093;28;20254;-85
2023/01/06 07:37:45;;;;;;;1.43;0.40;;;;;;;9.11;74.86;100557.19;10511237;28;20591;-83
2023/01/06 07:42:47;;;;;;;2.00;0.27;;;;;;;9.32;73.89;100554.91;10527381;28;20218;-84
2023/01/06 07:47:49;;;;;;;2.40;1.40;;;;;;;9.00;75.11;100560.41;10510296;28;20494;-83
2023/01/06 07:52:51;;;;;;;0.67;0.20;;;;;;;9.01;74.25;100557.31;10508728;28;20700;-85
2023/01/06 07:57:54;;;;;;;1.60;0.30;;;;;;;9.32;72.90;100564.16;10489444;28;20215;-84
2023/01/06 08:02:56;;;;;;;0.40;0.20;;;;;;;9.20;73.30;100566.56;10495312;28;20288;-84
2023/01/06 08:07:58;;;;;;;0.67;0.20;;;;;;;9.15;72.90;100566.63;10516758;28;20226;-84
2023/01/06 08:13:00;;;;;;;0.53;0.20;;;;;;;8.88;74.89;100563.66;10500255;28;20899;-83
2023/01/06 08:18:03;;;;;;;0.80;0.37;;;;;;;9.28;73.02;100563.09;10513472;28;20602;-82
2023/01/06 08:23:05;;;;;;;0.80;0.30;;;;;;;9.04;73.60;100547.47;10497330;28;20214;-82
2023/01/06 08:28:08;;;;;;;2.13;0.40;;;;;;;9.41;72.97;100566.31;10500103;28;20227;-86
2023/01/06 08:33:12;;;;;;;4.73;0.60;;;;;;;9.30;73.12;100582.38;10518153;28;20592;-82
2023/01/06 08:38:14;;;;;;;3.57;0.50;;;;;;;9.02;74.31;100581.34;10516124;28;20262;-84
2023/01/06 08:43:16;;;;;;;1.03;0.20;;;;;;;9.27;73.61;100581.03;10533492;28;21053;-82
2023/01/06 08:48:19;;;;;;;1.60;0.20;;;;;;;9.40;73.14;100615.06;10527634;28;20221;-81
2023/01/06 08:53:23;;;;;;;2.10;0.33;;;;;;;9.52;74.11;100621.88;10543125;28;20225;-87
2023/01/06 08:58:25;;;;;;;1.77;0.40;;;;;;;9.29;77.21;100608.69;10538998;28;20570;-85
2023/01/06 09:03:28;;;;;;;0.93;0.43;;;;;;;9.28;78.27;100605.06;10494759;28;20623;-84
2023/01/06 09:08:30;;;;;;;0.67;0.20;;;;;;;9.15;77.96;100605.00;10499514;28;20198;-86
2023/01/06 09:13:34;;;;;;;4.80;0.43;;;;;;;9.44;77.64;100614.13;10490588;28;20615;-83
2023/01/06 09:18:36;;;;;;;0.87;0.30;;;;;;;9.24;78.19;100612.41;10490864;28;20234;-82
2023/01/06 09:23:38;;;;;;;0.53;0.30;;;;;;;9.16;78.14;100618.66;10515082;28;20583;-82
2023/01/06 09:28:40;;;;;;;1.80;0.20;;;;;;;9.23;78.85;100638.75;10488645;28;20607;-87
2023/01/06 09:33:43;;;;;;;0.60;0.20;;;;;;;9.60;77.41;100648.38;10514664;28;20232;-84
2023/01/06 09:38:46;;;;;;;2.20;0.20;;;;;;;9.20;79.16;100661.72;10522942;28;20205;-85
2023/01/06 09:43:52;;;;;;;2.63;0.50;;;;;;;9.50;78.09;100659.72;10502473;28;20195;-83
2023/01/06 09:49:24;;;;;;;1.33;0.20;;;;;;;9.40;78.50;100662.66;10533619;28;20194;-84
2023/01/06 09:54:34;;;;;;;0.53;0.30;;;;;;;9.35;77.94;100682.25;10532088;28;20271;-82
2023/01/06 09:59:45;;;;;;;0.33;0.10;;;;;;;9.41;79.85;100679.13;10520844;28;20222;-84
2023/01/06 10:04:48;;;;;;;0.77;0.10;;;;;;;9.41;81.58;100681.91;10512306;28;20283;-81
2023/01/06 10:09:56;;;;;;;0.83;0.20;;;;;;;9.58;81.35;100678.63;10493523;28;20241;-83
2023/01/06 10:15:32;;;;;;;0.53;0.20;;;;;;;9.60;82.82;100684.78;10516589;28;20520;-81
2023/01/06 10:20:37;;;;;;;0.17;0.17;;;;;;;9.36;84.81;100695.97;10512481;28;20260;-82
2023/01/06 10:25:44;;;;;;;1.60;0.20;;;;;;;9.03;85.97;100694.09;10524242;28;20279;-83
2023/01/06 10:30:51;;;;;;;0.60;0.30;;;;;;;9.16;85.71;100688.63;10485603;28;20272;-83
2023/01/06 10:35:54;;;;;;;0.50;0.20;;;;;;;8.97;85.94;100692.50;10522068;28;20254;-87
2023/01/06 10:41:04;;;;;;;0.70;0.30;;;;;;;9.24;84.96;100682.41;10500711;28;20241;-84
2023/01/06 10:46:06;;;;;;;0.43;0.20;;;;;;;9.50;84.03;100682.13;10496300;28;20272;-82
2023/01/06 10:51:37;;;;;;;1.23;0.57;;;;;;;9.64;83.65;100669.03;10510583;28;20242;-73
2023/01/06 10:56:46;;;;;;;0.40;0.40;;;;;;;9.49;83.93;100680.44;10515613;28;20279;-87
2023/01/06 11:01:50;;;;;;;0.30;0.30;;;;;;;9.63;83.97;100692.56;10542551;28;20218;-86
2023/01/06 11:07:01;;;;;;;1.80;0.30;;;;;;;9.65;83.04;100695.91;10510939;28;20541;-84
2023/01/06 11:12:09;;;;;;;0.73;0.30;;;;;;;10.06;81.33;100689.75;10537584;28;20246;-84
2023/01/06 11:17:15;;;;;;;0.40;0.40;;;;;;;9.40;83.53;100693.44;10524365;28;20210;-83
2023/01/06 11:22:36;;;;;;;1.27;0.50;;;;;;;10.09;79.84;100689.09;10515002;28;20607;-83
2023/01/06 11:27:38;;;;;;;0.70;0.60;;;;;;;9.84;81.20;100698.72;10509304;28;20218;-82
2023/01/06 11:32:41;;;;;;;1.00;0.83;;;;;;;9.59;81.50;100702.72;10526227;28;20245;-80
2023/01/06 11:37:44;;;;;;;2.10;1.10;;;;;;;9.65;80.95;100687.50;10530736;28;20253;-83
2023/01/06 11:42:48;;;;;;;3.60;0.80;;;;;;;10.05;79.50;100691.72;10522359;28;20195;-82
2023/01/06 11:47:50;;;;;;;1.27;0.80;;;;;;;10.34;77.78;100686.72;10498627;28;20300;-84
2023/01/06 11:53:01;;;;;;;2.17;0.80;;;;;;;10.21;77.99;100689.47;10531499;28;20222;-82
2023/01/06 11:58:18;;;;;;;0.93;0.40;;;;;;;10.38;78.20;100699.00;10532660;28;20221;-82
2023/01/06 12:03:40;;;;;;;2.50;0.90;;;;;;;10.25;77.59;100696.97;10530109;28;20259;-85
2023/01/06 12:08:53;;;;;;;1.80;0.90;;;;;;;10.34;77.52;100703.56;10511808;28;20211;-81
2023/01/06 12:13:56;;;;;;;2.50;0.87;;;;;;;10.40;76.89;100684.69;10531799;28;20206;-84
2023/01/06 12:19:29;;;;;;;2.70;0.80;;;;;;;10.25;76.86;100682.13;10521055;28;20782;-83
2023/01/06 12:24:32;;;;;;;1.40;1.30;;;;;;;10.43;75.68;100686.91;10514110;28;20227;-84
2023/01/06 12:29:35;;;;;;;1.43;1.33;;;;;;;10.45;74.45;100687.41;10524999;28;20618;-84
2023/01/06 12:34:41;;;;;;;1.37;1.10;;;;;;;10.41;74.14;100679.91;10523034;28;20253;-82
2023/01/06 12:39:53;;;;;;;1.57;1.10;;;;;;;10.65;74.02;100681.47;10509062;28;20207;-81
2023/01/06 12:45:43;;;;;;;1.10;0.73;;;;;;;10.26;73.72;100695.84;10512234;28;20268;-83
2023/01/06 12:51:06;;;;;;;3.87;1.50;;;;;;;10.21;73.72;100693.13;10525014;28;20350;-84
2023/01/06 12:56:48;;;;;;;1.93;0.70;;;;;;;10.90;70.43;100693.38;10496846;28;20206;-82
2023/01/06 13:02:24;;;;;;;2.03;0.90;;;;;;;10.36;70.11;100689.22;10526659;28;20214;-84
2023/01/06 13:07:32;;;;;;;1.67;0.70;;;;;;;10.81;70.19;100681.22;10524797;28;20615;-82
2023/01/06 13:12:46;;;;;;;2.97;1.10;;;;;;;11.10;69.21;100670.53;10516109;28;20245;-81
2023/01/06 13:18:12;;;;;;;1.80;0.50;;;;;;;10.58;71.69;100675.41;10522066;28;20560;-83
2023/01/06 13:23:52;;;;;;;4.13;3.50;;;;;;;10.85;70.27;100671.84;10527561;28;20230;-83
2023/01/06 13:29:18;;;;;;;1.02;0.60;;;;;;;10.24;72.15;100686.06;10518043;28;20229;-83
2023/01/06 13:34:25;;;;;;;0.43;0.43;;;;;;;10.90;69.37;100665.31;10514190;28;20322;-83
2023/01/06 13:39:42;;;;;;;1.40;0.37;;;;;;;10.66;69.43;100666.31;10522864;28;20660;-82
2023/01/06 13:44:45;;;;;;;1.57;0.50;;;;;;;10.69;68.87;100654.50;10528043;28;20271;-82
2023/01/06 13:49:47;;;;;;;1.17;0.40;;;;;;;10.80;68.62;100651.47;10513520;28;20252;-83
2023/01/06 13:54:49;;;;;;;1.37;0.40;;;;;;;10.99;69.11;100666.25;10504277;28;20253;-81
2023/01/06 14:00:10;;;;;;;2.20;0.60;;;;;;;10.87;69.72;100658.34;10518955;28;20230;-83
2023/01/06 14:05:21;;;;;;;1.47;0.50;;;;;;;10.40;71.09;100665.06;10531254;28;20226;-82
2023/01/06 14:10:38;;;;;;;1.17;0.40;;;;;;;10.69;70.12;100676.94;10518391;28;20221;-82
2023/01/06 14:15:54;;;;;;;2.17;0.43;;;;;;;11.02;68.98;100662.84;10528131;28;20584;-83
2023/01/06 14:21:03;;;;;;;0.67;0.50;;;;;;;10.72;70.08;100672.66;10525610;28;20222;-84
2023/01/06 14:26:05;;;;;;;0.53;0.27;;;;;;;10.19;73.43;100675.75;10501478;28;20295;-83
2023/01/06 14:31:27;;;;;;;0.30;0.20;;;;;;;10.09;74.20;100689.94;10525177;28;20234;-85
2023/01/06 14:36:31;;;;;;;0.40;0.20;;;;;;;9.71;76.17;100689.09;10518720;28;20249;-85
2023/01/06 14:41:42;;;;;;;1.10;0.30;;;;;;;10.20;75.43;100687.81;10536365;28;20769;-73
2023/01/06 14:46:50;;;;;;;2.23;0.90;;;;;;;10.17;75.40;100680.03;10502896;28;20606;-81
2023/01/06 14:51:54;;;;;;;0.80;0.50;;;;;;;10.25;75.79;100682.13;10527121;28;20318;-84
2023/01/06 14:56:59;;;;;;;1.90;0.60;;;;;;;10.07;76.90;100691.38;10525309;28;20230;-83
2023/01/06 15:02:16;;;;;;;0.63;0.43;;;;;;;10.25;76.54;100694.19;10492858;28;20300;-83
2023/01/06 15:07:21;;;;;;;1.87;0.73;;;;;;;10.41;77.41;100696.75;10502204;28;20198;-86
2023/01/06 15:12:29;;;;;;;0.60;0.60;;;;;;;9.88;80.83;100708.19;10502257;28;20684;-82
2023/01/06 15:17:31;;;;;;;3.20;1.47;;;;;;;10.07;81.95;100703.41;10507534;28;20206;-86
2023/01/06 15:22:33;;;;;;;0.90;0.90;;;;;;;9.78;84.18;100703.59;10504022;28;20273;-81
2023/01/06 15:27:36;;;;;;;2.40;1.40;;;;;;;9.91;83.75;100694.44;10499817;28;20632;-82
2023/01/06 15:32:39;;;;;;;1.87;1.30;;;;;;;10.19;80.96;100692.59;10503555;28;20299;-83
2023/01/06 15:37:43;;;;;;;2.20;1.87;;;;;;;9.86;82.96;100685.25;10520312;28;20262;-82
2023/01/06 15:42:45;;;;;;;2.23;1.70;;;;;;;9.58;83.44;100678.63;10518367;28;20223;-84
2023/01/06 15:47:48;;;;;;;1.50;1.40;;;;;;;9.99;81.37;100696.53;10507660;28;20261;-83
2023/01/06 15:53:03;;;;;;;2.53;1.30;;;;;;;9.65;82.71;100696.75;10528561;28;20253;-83
2023/01/06 15:58:08;;;;;;;2.40;0.87;;;;;;;9.86;81.92;100700.09;10524372;28;20229;-86
2023/01/06 16:03:21;;;;;;;1.50;0.80;;;;;;;9.98;80.95;100700.47;10513580;28;20230;-82
2023/01/06 16:08:24;;;;;;;1.63;1.53;;;;;;;9.52;81.85;100686.28;10528125;28;20234;-81
2023/01/06 16:13:28;;;;;;;1.93;1.60;;;;;;;9.92;80.88;100684.88;10509890;28;20258;-79
2023/01/06 16:18:33;;;;;;;3.93;2.27;;;;;;;9.94;80.49;100688.19;10523109;28;20664;-82
2023/01/06 16:23:37;;;;;;;3.47;2.33;;;;;;;9.58;82.02;100689.84;10525329;28;20226;-83
2023/01/06 16:28:42;;;;;;;1.80;1.20;;;;;;;9.95;81.33;100689.03;10513017;28;20280;-85
2023/01/06 16:33:45;;;;;;;1.83;1.17;;;;;;;9.87;80.96;100687.75;10519977;28;20306;-88
2023/01/06 16:38:48;;;;;;;1.50;1.40;;;;;;;9.75;81.23;100684.56;10499680;28;20203;-87
2023/01/06 16:43:50;;;;;;;3.27;1.10;;;;;;;10.00;81.18;100691.78;10502835;28;20229;-82
2023/01/06 16:49:00;;;;;;;1.77;1.40;;;;;;;9.75;83.25;100709.78;10515942;28;20226;-83
2023/01/06 16:54:09;;;;;;;1.73;1.60;;;;;;;9.73;84.08;100714.00;10518032;28;20671;-82
2023/01/06 16:59:16;;;;;;;2.23;1.97;;;;;;;9.67;84.17;100720.84;10519327;28;20240;-82
2023/01/06 17:04:19;;;;;;;2.80;2.40;;;;;;;9.74;84.15;100722.13;10525681;28;20267;-82
2023/01/06 17:09:22;;;;;;;3.33;2.70;;;;;;;9.79;83.51;100721.22;10517261;28;20226;-82
2023/01/06 17:14:26;;;;;;;3.53;3.23;;;;;;;9.78;83.34;100719.56;10510203;28;20244;-82
2023/01/06 17:19:31;;;;;;;3.20;3.00;;;;;;;9.68;84.01;100717.69;10507065;28;20286;-82
2023/01/06 17:24:33;;;;;;;3.87;3.20;;;;;;;9.95;83.71;100723.50;10533086;28;20335;-82
2023/01/06 17:29:36;;;;;;;4.80;3.20;;;;;;;10.12;81.97;100733.34;10522794;28;20218;-83
2023/01/06 17:34:38;;;;;;;3.20;3.00;;;;;;;9.69;83.38;100727.78;10519016;28;20314;-84
2023/01/06 17:39:43;;;;;;;3.93;3.33;;;;;;;9.78;82.79;100728.78;10524324;28;20659;-82
2023/01/06 17:44:47;;;;;;;4.20;3.80;;;;;;;9.62;82.82;100732.91;10503465;28;20287;-85
2023/01/06 17:50:00;;;;;;;3.80;3.50;;;;;;;9.68;82.46;100726.09;10513122;28;20283;-83
2023/01/06 18:00:30;;;;;;;4.73;4.33;;;;;;;9.67;82.79;100730.03;10519534;28;20217;-84
2023/01/06 18:05:32;;;;;;;4.37;4.07;;;;;;;9.91;81.41;100739.25;10507565;28;20227;-82
2023/01/06 18:10:41;;;;;;;3.90;3.60;;;;;;;9.64;81.82;100742.69;10519995;28;20222;-83
2023/01/06 18:15:45;;;;;;;3.73;3.43;;;;;;;10.09;80.72;100739.56;10517306;28;20241;-85
2023/01/06 18:21:13;;;;;;;4.80;4.40;;;;;;;10.04;80.93;100731.25;10522030;28;20283;-83
2023/01/06 18:26:28;;;;;;;4.63;4.30;;;;;;;10.06;81.30;100726.97;10509792;28;20619;-83
2023/01/06 18:31:35;;;;;;;4.40;4.10;;;;;;;9.63;83.02;100727.03;10519588;28;20230;-83
2023/01/06 18:36:37;;;;;;;4.27;3.87;;;;;;;9.70;81.79;100725.81;10508146;28;20283;-83
2023/01/06 18:41:40;;;;;;;4.90;4.50;;;;;;;9.77;82.48;100727.13;10509793;28;20486;-84
2023/01/06 18:46:42;;;;;;;4.90;4.50;;;;;;;9.68;82.52;100723.31;10494337;28;20739;-83
2023/01/06 18:51:44;;;;;;;5.30;4.20;;;;;;;9.76;81.46;100725.47;10506360;28;20231;-83
2023/01/06 18:56:46;;;;;;;5.33;3.90;;;;;;;10.01;80.73;100719.50;10499872;28;20644;-82
2023/01/06 19:01:53;;;;;;;4.60;3.20;;;;;;;9.89;80.88;100726.69;10522529;28;20299;-83
2023/01/06 19:06:55;;;;;;;2.90;2.70;;;;;;;10.05;79.73;100732.91;10520151;28;20237;-84
2023/01/06 19:12:04;;;;;;;3.30;3.10;;;;;;;9.62;81.55;100730.13;10526339;28;20226;-84
2023/01/06 19:17:31;;;;;;;2.93;2.73;;;;;;;10.20;79.00;100735.47;10523317;28;20219;-83
2023/01/06 19:22:36;;;;;;;2.60;2.40;;;;;;;9.83;80.22;100731.50;10477414;28;20222;-84
2023/01/06 19:27:48;;;;;;;3.60;2.37;;;;;;;10.29;78.73;100733.66;10525729;28;20226;-83
2023/01/06 19:32:51;;;;;;;1.93;1.83;;;;;;;9.94;80.01;100721.81;10529618;28;20271;-83
2023/01/06 19:37:54;;;;;;;2.43;2.20;;;;;;;9.76;80.12;100725.47;10526349;28;20303;-82
2023/01/06 19:43:08;;;;;;;1.90;1.80;;;;;;;10.05;79.39;100721.69;10511008;28;20284;-82
2023/01/06 19:48:36;;;;;;;2.90;1.70;;;;;;;9.90;78.96;100709.56;10524405;28;20736;-83
2023/01/06 19:53:49;;;;;;;2.63;1.40;;;;;;;10.22;77.96;100705.16;10520517;28;20295;-82
2023/01/06 19:59:00;;;;;;;1.50;1.20;;;;;;;9.95;79.38;100695.47;10531732;28;20226;-83
2023/01/06 20:04:15;;;;;;;1.43;1.30;;;;;;;9.89;79.53;100693.91;10522818;28;20233;-82
2023/01/06 20:09:20;;;;;;;1.53;1.43;;;;;;;9.97;79.32;100704.41;10519001;28;20218;-82
2023/01/06 20:14:22;;;;;;;1.70;1.50;;;;;;;9.98;79.11;100700.47;10502762;28;20722;-82
2023/01/06 20:19:24;;;;;;;1.60;1.40;;;;;;;9.77;78.91;100696.31;10544119;28;20602;-82
2023/01/06 20:24:27;;;;;;;1.83;1.40;;;;;;;9.62;80.63;100697.34;10505756;28;20226;-82
2023/01/06 20:29:29;;;;;;;1.27;1.20;;;;;;;9.93;81.24;100697.75;10521723;28;20598;-82
2023/01/06 20:34:31;;;;;;;1.20;1.20;;;;;;;9.70;84.08;100693.03;10524428;28;20246;-82
2023/01/06 20:39:33;;;;;;;2.47;1.70;;;;;;;9.61;85.33;100700.44;10520559;28;20553;-83
2023/01/06 20:44:35;;;;;;;1.37;1.27;;;;;;;9.38;86.76;100695.69;10511155;28;20218;-82
2023/01/06 20:49:38;;;;;;;2.40;2.03;;;;;;;9.39;88.00;100692.56;10499383;28;20653;-82
2023/01/06 20:54:40;;;;;;;2.50;1.63;;;;;;;9.13;90.22;100689.25;10510720;28;20238;-81
2023/01/06 20:59:42;;;;;;;2.57;2.13;;;;;;;9.38;88.32;100688.09;10515152;28;20263;-83
2023/01/06 21:04:44;;;;;;;3.43;2.20;;;;;;;9.28;88.95;100691.84;10510028;28;20252;-83
2023/01/06 21:09:46;;;;;;;4.40;2.10;;;;;;;9.08;89.56;100686.50;10511841;28;20515;-83
2023/01/06 21:14:49;;;;;;;1.57;1.40;;;;;;;8.87;90.16;100690.66;10493601;28;20302;-83
2023/01/06 21:19:51;;;;;;;2.00;1.60;;;;;;;8.97;89.73;100682.16;10516869;28;20226;-83
2023/01/06 21:24:53;;;;;;;1.77;1.67;;;;;;;8.77;90.88;100690.72;10494455;28;20213;-84
2023/01/06 21:29:56;;;;;;;2.13;1.97;;;;;;;8.92;90.52;100690.56;10516787;28;20218;-83
2023/01/06 21:34:58;;;;;;;2.17;1.97;;;;;;;8.97;90.23;100684.94;10519392;28;20241;-83
2023/01/06 21:40:04;;;;;;;1.73;1.63;;;;;;;8.82;91.56;100676.72;10506550;28;20206;-84
2023/01/06 21:45:07;;;;;;;1.80;1.70;;;;;;;8.77;91.49;100685.13;10519860;28;20256;-83
2023/01/06 21:50:10;;;;;;;1.90;1.80;;;;;;;8.87;91.92;100691.50;10524708;28;20600;-84
2023/01/06 21:55:13;;;;;;;1.70;1.60;;;;;;;8.93;91.21;100695.06;10520622;28;20268;-82
2023/01/06 22:00:15;;;;;;;1.90;1.80;;;;;;;9.20;89.00;100686.06;10534720;28;20198;-83
2023/01/06 22:05:18;;;;;;;1.80;1.70;;;;;;;9.02;89.68;100687.66;10536490;28;20198;-83
2023/01/06 22:10:22;;;;;;;1.60;1.50;;;;;;;9.30;88.89;100683.16;10516489;28;20193;-84
2023/01/06 22:15:25;;;;;;;1.37;1.27;;;;;;;9.52;87.92;100691.88;10516813;28;20281;-84
2023/01/06 22:20:29;;;;;;;1.23;1.17;;;;;;;9.21;87.58;100685.78;10534058;28;20199;-83
2023/01/06 22:25:32;;;;;;;1.80;1.70;;;;;;;9.29;87.42;100693.50;10534014;28;20236;-84
2023/01/06 22:30:35;;;;;;;2.00;1.90;;;;;;;9.17;87.77;100683.88;10533628;28;20194;-85
2023/01/06 22:35:37;;;;;;;1.73;1.30;;;;;;;9.19;87.98;100704.84;10532450;28;20311;-85
2023/01/06 22:40:40;;;;;;;2.13;1.77;;;;;;;9.43;87.27;100698.41;10525201;28;20236;-84
2023/01/06 22:45:42;;;;;;;1.70;1.60;;;;;;;9.12;87.94;100695.97;10525109;28;20199;-85
2023/01/06 22:50:44;;;;;;;2.07;1.87;;;;;;;8.93;88.72;100684.69;10543645;28;20194;-84
2023/01/06 22:55:57;;;;;;;1.60;1.50;;;;;;;8.75;90.22;100682.66;10542999;28;20246;-84
2023/01/06 23:01:00;;;;;;;2.00;1.90;;;;;;;9.28;88.12;100686.25;10540841;27;20594;-84
2023/01/06 23:06:05;;;;;;;2.90;1.70;;;;;;;9.06;88.02;100683.16;10526686;28;20202;-83
2023/01/06 23:11:18;;;;;;;1.90;1.80;;;;;;;9.31;86.92;100684.81;10533067;28;20257;-86
2023/01/06 23:16:21;;;;;;;1.77;1.67;;;;;;;9.45;86.75;100687.75;10528089;28;20219;-84
2023/01/06 23:21:25;;;;;;;2.63;1.33;;;;;;;9.18;87.46;100682.75;10521286;28;20272;-83
2023/01/06 23:26:30;;;;;;;1.40;1.30;;;;;;;9.43;85.64;100684.44;10522290;28;20191;-84
2023/01/06 23:31:35;;;;;;;2.10;1.20;;;;;;;9.17;86.63;100681.91;10535487;28;20249;-84
2023/01/06 23:36:38;;;;;;;1.20;1.10;;;;;;;9.34;85.45;100670.22;10518630;28;20302;-83
2023/01/06 23:41:40;;;;;;;1.83;1.17;;;;;;;9.08;86.67;100664.09;10548948;28;20195;-84
2023/01/06 23:46:43;;;;;;;1.10;1.00;;;;;;;9.19;86.38;100668.44;10517421;28;20203;-84
2023/01/06 23:51:45;;;;;;;1.00;1.00;;;;;;;9.09;86.83;100660.19;10515894;28;20195;-84